sensor_id;sensor_type;location;lat;lon;timestamp;P1;durP1;ratioP1;P2;durP2;ratioP2
65545;SDS011;52177;55.968;37.498;2024-02-23T00:00:32;29.85;;;24.17;;
65545;SDS011;52177;55.968;37.498;2024-02-23T00:01:03;32.25;;;23.60;;
65545;SDS011;52177;55.968;37.498;2024-02-23T00:01:33;32.97;;;24.63;;
65545;SDS011;52177;55.968;37.498;2024-02-23T00:02:13;30.30;;;23.75;;
65545;SDS011;52177;55.968;37.498;2024-02-23T00:02:43;30.17;;;24.00;;
65545;SDS011;52177;55.968;37.498;2024-02-23T00:03:19;30.35;;;23.15;;
65545;SDS011;52177;55.968;37.498;2024-02-23T00:03:49;33.63;;;23.80;;
65545;SDS011;52177;55.968;37.498;2024-02-23T00:04:20;33.72;;;25.00;;
65545;SDS011;52177;55.968;37.498;2024-02-23T00:04:50;30.38;;;24.02;;
65545;SDS011;52177;55.968;37.498;2024-02-23T00:05:26;32.33;;;22.98;;
65545;SDS011;52177;55.968;37.498;2024-02-23T00:05:58;30.73;;;23.65;;
65545;SDS011;52177;55.968;37.498;2024-02-23T00:06:29;31.65;;;24.52;;
65545;SDS011;52177;55.968;37.498;2024-02-23T00:06:59;31.95;;;23.58;;
65545;SDS011;52177;55.968;37.498;2024-02-23T00:07:29;33.72;;;23.83;;
65545;SDS011;52177;55.968;37.498;2024-02-23T00:08:00;31.88;;;24.27;;
65545;SDS011;52177;55.968;37.498;2024-02-23T00:08:31;33.92;;;24.40;;
65545;SDS011;52177;55.968;37.498;2024-02-23T00:09:01;32.78;;;25.23;;
65545;SDS011;52177;55.968;37.498;2024-02-23T00:09:32;31.55;;;24.83;;
65545;SDS011;52177;55.968;37.498;2024-02-23T00:10:09;32.20;;;23.95;;
65545;SDS011;52177;55.968;37.498;2024-02-23T00:10:39;29.85;;;23.77;;
65545;SDS011;52177;55.968;37.498;2024-02-23T00:11:09;33.50;;;24.23;;
65545;SDS011;52177;55.968;37.498;2024-02-23T00:11:40;33.45;;;24.15;;
65545;SDS011;52177;55.968;37.498;2024-02-23T00:12:14;33.63;;;25.05;;
65545;SDS011;52177;55.968;37.498;2024-02-23T00:12:47;31.20;;;24.20;;
65545;SDS011;52177;55.968;37.498;2024-02-23T00:13:17;32.47;;;23.65;;
65545;SDS011;52177;55.968;37.498;2024-02-23T00:13:48;30.15;;;23.75;;
65545;SDS011;52177;55.968;37.498;2024-02-23T00:14:18;34.47;;;24.30;;
65545;SDS011;52177;55.968;37.498;2024-02-23T00:14:48;31.52;;;23.85;;
65545;SDS011;52177;55.968;37.498;2024-02-23T00:15:42;34.05;;;24.30;;
65545;SDS011;52177;55.968;37.498;2024-02-23T00:16:11;29.48;;;22.65;;
65545;SDS011;52177;55.968;37.498;2024-02-23T00:16:45;31.00;;;23.95;;
65545;SDS011;52177;55.968;37.498;2024-02-23T00:17:15;32.17;;;23.45;;
65545;SDS011;52177;55.968;37.498;2024-02-23T00:17:46;30.55;;;23.10;;
65545;SDS011;52177;55.968;37.498;2024-02-23T00:18:17;32.53;;;24.23;;
65545;SDS011;52177;55.968;37.498;2024-02-23T00:18:47;32.38;;;24.65;;
65545;SDS011;52177;55.968;37.498;2024-02-23T00:19:17;31.52;;;23.42;;
65545;SDS011;52177;55.968;37.498;2024-02-23T00:19:58;32.08;;;23.05;;
65545;SDS011;52177;55.968;37.498;2024-02-23T00:20:29;34.70;;;23.95;;
65545;SDS011;52177;55.968;37.498;2024-02-23T00:20:59;29.73;;;23.73;;
65545;SDS011;52177;55.968;37.498;2024-02-23T00:21:30;32.33;;;24.50;;
65545;SDS011;52177;55.968;37.498;2024-02-23T00:22:01;29.08;;;23.17;;
65545;SDS011;52177;55.968;37.498;2024-02-23T00:22:34;30.63;;;24.17;;
65545;SDS011;52177;55.968;37.498;2024-02-23T00:23:04;30.45;;;24.40;;
65545;SDS011;52177;55.968;37.498;2024-02-23T00:23:37;31.77;;;23.90;;
65545;SDS011;52177;55.968;37.498;2024-02-23T00:24:14;32.53;;;24.13;;
65545;SDS011;52177;55.968;37.498;2024-02-23T00:24:47;30.88;;;23.50;;
65545;SDS011;52177;55.968;37.498;2024-02-23T00:25:17;31.13;;;23.63;;
65545;SDS011;52177;55.968;37.498;2024-02-23T00:25:49;32.67;;;24.52;;
65545;SDS011;52177;55.968;37.498;2024-02-23T00:26:22;32.55;;;24.50;;
65545;SDS011;52177;55.968;37.498;2024-02-23T00:27:03;32.00;;;23.60;;
65545;SDS011;52177;55.968;37.498;2024-02-23T00:27:36;32.00;;;24.08;;
65545;SDS011;52177;55.968;37.498;2024-02-23T00:28:10;33.95;;;23.75;;
65545;SDS011;52177;55.968;37.498;2024-02-23T00:28:46;31.75;;;23.70;;
65545;SDS011;52177;55.968;37.498;2024-02-23T00:29:19;31.20;;;24.08;;
65545;SDS011;52177;55.968;37.498;2024-02-23T00:29:50;28.63;;;23.05;;
65545;SDS011;52177;55.968;37.498;2024-02-23T00:30:20;28.90;;;23.10;;
65545;SDS011;52177;55.968;37.498;2024-02-23T00:30:50;29.90;;;23.90;;
65545;SDS011;52177;55.968;37.498;2024-02-23T00:31:21;33.47;;;24.45;;
65545;SDS011;52177;55.968;37.498;2024-02-23T00:31:54;32.20;;;24.17;;
65545;SDS011;52177;55.968;37.498;2024-02-23T00:32:24;32.58;;;24.70;;
65545;SDS011;52177;55.968;37.498;2024-02-23T00:32:55;32.90;;;23.92;;
65545;SDS011;52177;55.968;37.498;2024-02-23T00:33:25;29.05;;;22.13;;
65545;SDS011;52177;55.968;37.498;2024-02-23T00:33:56;32.45;;;24.90;;
65545;SDS011;52177;55.968;37.498;2024-02-23T00:34:26;32.63;;;25.15;;
65545;SDS011;52177;55.968;37.498;2024-02-23T00:35:01;32.63;;;23.50;;
65545;SDS011;52177;55.968;37.498;2024-02-23T00:35:32;31.92;;;24.92;;
65545;SDS011;52177;55.968;37.498;2024-02-23T00:36:03;31.83;;;24.10;;
65545;SDS011;52177;55.968;37.498;2024-02-23T00:36:33;31.67;;;24.02;;
65545;SDS011;52177;55.968;37.498;2024-02-23T00:37:04;35.55;;;23.67;;
65545;SDS011;52177;55.968;37.498;2024-02-23T00:37:35;33.88;;;24.25;;
65545;SDS011;52177;55.968;37.498;2024-02-23T00:38:09;33.97;;;24.90;;
65545;SDS011;52177;55.968;37.498;2024-02-23T00:38:39;31.33;;;24.35;;
65545;SDS011;52177;55.968;37.498;2024-02-23T00:39:31;29.45;;;23.10;;
65545;SDS011;52177;55.968;37.498;2024-02-23T00:40:02;32.03;;;23.63;;
65545;SDS011;52177;55.968;37.498;2024-02-23T00:40:36;31.65;;;23.67;;
65545;SDS011;52177;55.968;37.498;2024-02-23T00:41:08;29.88;;;23.10;;
65545;SDS011;52177;55.968;37.498;2024-02-23T00:41:38;31.35;;;24.10;;
65545;SDS011;52177;55.968;37.498;2024-02-23T00:42:09;33.90;;;24.63;;
65545;SDS011;52177;55.968;37.498;2024-02-23T00:42:39;35.13;;;25.65;;
65545;SDS011;52177;55.968;37.498;2024-02-23T00:43:09;29.42;;;24.23;;
65545;SDS011;52177;55.968;37.498;2024-02-23T00:43:40;31.02;;;24.35;;
65545;SDS011;52177;55.968;37.498;2024-02-23T00:44:13;28.85;;;23.73;;
65545;SDS011;52177;55.968;37.498;2024-02-23T00:44:46;35.50;;;24.13;;
65545;SDS011;52177;55.968;37.498;2024-02-23T00:45:16;36.08;;;24.95;;
65545;SDS011;52177;55.968;37.498;2024-02-23T00:45:49;31.55;;;23.75;;
65545;SDS011;52177;55.968;37.498;2024-02-23T00:46:23;31.67;;;23.13;;
65545;SDS011;52177;55.968;37.498;2024-02-23T00:46:53;30.65;;;23.42;;
65545;SDS011;52177;55.968;37.498;2024-02-23T00:47:24;32.47;;;23.65;;
65545;SDS011;52177;55.968;37.498;2024-02-23T00:47:54;34.72;;;24.52;;
65545;SDS011;52177;55.968;37.498;2024-02-23T00:48:25;28.65;;;22.02;;
65545;SDS011;52177;55.968;37.498;2024-02-23T00:49:01;32.67;;;24.75;;
65545;SDS011;52177;55.968;37.498;2024-02-23T00:49:35;32.08;;;23.48;;
65545;SDS011;52177;55.968;37.498;2024-02-23T00:50:05;34.53;;;24.30;;
65545;SDS011;52177;55.968;37.498;2024-02-23T00:50:36;31.48;;;24.52;;
65545;SDS011;52177;55.968;37.498;2024-02-23T00:51:07;29.98;;;22.92;;
65545;SDS011;52177;55.968;37.498;2024-02-23T00:51:37;36.60;;;24.05;;
65545;SDS011;52177;55.968;37.498;2024-02-23T00:52:10;33.33;;;24.95;;
65545;SDS011;52177;55.968;37.498;2024-02-23T00:52:43;33.65;;;25.13;;
65545;SDS011;52177;55.968;37.498;2024-02-23T00:53:16;28.88;;;23.25;;
65545;SDS011;52177;55.968;37.498;2024-02-23T00:53:47;33.10;;;24.38;;
65545;SDS011;52177;55.968;37.498;2024-02-23T00:54:18;32.95;;;23.92;;
65545;SDS011;52177;55.968;37.498;2024-02-23T00:54:51;31.77;;;24.17;;
65545;SDS011;52177;55.968;37.498;2024-02-23T00:55:22;32.00;;;24.45;;
65545;SDS011;52177;55.968;37.498;2024-02-23T00:55:58;31.30;;;23.83;;
65545;SDS011;52177;55.968;37.498;2024-02-23T00:56:28;32.03;;;24.52;;
65545;SDS011;52177;55.968;37.498;2024-02-23T00:57:04;31.05;;;23.52;;
65545;SDS011;52177;55.968;37.498;2024-02-23T00:57:43;33.88;;;24.35;;
65545;SDS011;52177;55.968;37.498;2024-02-23T00:58:52;31.35;;;21.65;;
65545;SDS011;52177;55.968;37.498;2024-02-23T00:59:22;31.10;;;22.77;;
65545;SDS011;52177;55.968;37.498;2024-02-23T00:59:56;31.92;;;23.23;;
65545;SDS011;52177;55.968;37.498;2024-02-23T01:00:33;33.30;;;24.10;;
65545;SDS011;52177;55.968;37.498;2024-02-23T01:01:03;31.77;;;23.17;;
65545;SDS011;52177;55.968;37.498;2024-02-23T01:01:34;32.67;;;23.05;;
65545;SDS011;52177;55.968;37.498;2024-02-23T01:02:04;34.60;;;24.15;;
65545;SDS011;52177;55.968;37.498;2024-02-23T01:02:35;31.25;;;24.20;;
65545;SDS011;52177;55.968;37.498;2024-02-23T01:03:10;30.83;;;22.90;;
65545;SDS011;52177;55.968;37.498;2024-02-23T01:03:41;32.28;;;22.83;;
65545;SDS011;52177;55.968;37.498;2024-02-23T01:04:14;30.27;;;22.00;;
65545;SDS011;52177;55.968;37.498;2024-02-23T01:04:48;32.60;;;23.25;;
65545;SDS011;52177;55.968;37.498;2024-02-23T01:05:18;31.73;;;23.88;;
65545;SDS011;52177;55.968;37.498;2024-02-23T01:05:49;31.98;;;24.23;;
65545;SDS011;52177;55.968;37.498;2024-02-23T01:06:19;30.63;;;22.73;;
65545;SDS011;52177;55.968;37.498;2024-02-23T01:06:49;32.22;;;24.67;;
65545;SDS011;52177;55.968;37.498;2024-02-23T01:07:20;34.78;;;24.27;;
65545;SDS011;52177;55.968;37.498;2024-02-23T01:07:54;37.15;;;23.77;;
65545;SDS011;52177;55.968;37.498;2024-02-23T01:08:24;31.40;;;22.90;;
65545;SDS011;52177;55.968;37.498;2024-02-23T01:08:54;30.27;;;23.55;;
65545;SDS011;52177;55.968;37.498;2024-02-23T01:09:25;32.80;;;24.15;;
65545;SDS011;52177;55.968;37.498;2024-02-23T01:09:55;30.67;;;23.75;;
65545;SDS011;52177;55.968;37.498;2024-02-23T01:10:26;35.10;;;24.00;;
65545;SDS011;52177;55.968;37.498;2024-02-23T01:10:57;32.80;;;24.15;;
65545;SDS011;52177;55.968;37.498;2024-02-23T01:11:28;33.47;;;23.67;;
65545;SDS011;52177;55.968;37.498;2024-02-23T01:12:04;31.42;;;23.50;;
65545;SDS011;52177;55.968;37.498;2024-02-23T01:12:35;32.95;;;23.13;;
65545;SDS011;52177;55.968;37.498;2024-02-23T01:13:11;28.85;;;22.95;;
65545;SDS011;52177;55.968;37.498;2024-02-23T01:13:45;33.45;;;23.73;;
65545;SDS011;52177;55.968;37.498;2024-02-23T01:14:15;30.77;;;23.75;;
65545;SDS011;52177;55.968;37.498;2024-02-23T01:14:46;33.42;;;24.10;;
65545;SDS011;52177;55.968;37.498;2024-02-23T01:16:11;30.80;;;21.63;;
65545;SDS011;52177;55.968;37.498;2024-02-23T01:16:45;30.63;;;22.13;;
65545;SDS011;52177;55.968;37.498;2024-02-23T01:17:19;31.80;;;23.52;;
65545;SDS011;52177;55.968;37.498;2024-02-23T01:18:36;30.13;;;22.08;;
65545;SDS011;52177;55.968;37.498;2024-02-23T01:19:06;29.65;;;21.65;;
65545;SDS011;52177;55.968;37.498;2024-02-23T01:19:37;29.75;;;22.77;;
65545;SDS011;52177;55.968;37.498;2024-02-23T01:20:10;31.25;;;22.70;;
65545;SDS011;52177;55.968;37.498;2024-02-23T01:20:41;30.70;;;22.73;;
65545;SDS011;52177;55.968;37.498;2024-02-23T01:21:11;31.33;;;22.65;;
65545;SDS011;52177;55.968;37.498;2024-02-23T01:21:42;31.75;;;22.23;;
65545;SDS011;52177;55.968;37.498;2024-02-23T01:22:12;34.90;;;23.08;;
65545;SDS011;52177;55.968;37.498;2024-02-23T01:22:44;29.92;;;23.00;;
65545;SDS011;52177;55.968;37.498;2024-02-23T01:23:15;30.05;;;23.10;;
65545;SDS011;52177;55.968;37.498;2024-02-23T01:23:45;29.52;;;22.35;;
65545;SDS011;52177;55.968;37.498;2024-02-23T01:24:19;29.75;;;22.35;;
65545;SDS011;52177;55.968;37.498;2024-02-23T01:24:49;28.45;;;22.05;;
65545;SDS011;52177;55.968;37.498;2024-02-23T01:25:29;32.17;;;23.05;;
65545;SDS011;52177;55.968;37.498;2024-02-23T01:25:59;29.05;;;22.10;;
65545;SDS011;52177;55.968;37.498;2024-02-23T01:26:30;29.27;;;22.02;;
65545;SDS011;52177;55.968;37.498;2024-02-23T01:27:03;29.50;;;22.10;;
65545;SDS011;52177;55.968;37.498;2024-02-23T01:27:36;31.75;;;23.15;;
65545;SDS011;52177;55.968;37.498;2024-02-23T01:28:10;30.23;;;21.80;;
65545;SDS011;52177;55.968;37.498;2024-02-23T01:28:40;30.20;;;22.50;;
65545;SDS011;52177;55.968;37.498;2024-02-23T01:29:14;28.83;;;21.95;;
65545;SDS011;52177;55.968;37.498;2024-02-23T01:29:46;26.85;;;21.33;;
65545;SDS011;52177;55.968;37.498;2024-02-23T01:30:20;31.70;;;22.48;;
65545;SDS011;52177;55.968;37.498;2024-02-23T01:30:55;27.50;;;21.92;;
65545;SDS011;52177;55.968;37.498;2024-02-23T01:31:25;30.05;;;21.77;;
65545;SDS011;52177;55.968;37.498;2024-02-23T01:31:56;29.45;;;22.08;;
65545;SDS011;52177;55.968;37.498;2024-02-23T01:32:29;28.42;;;21.60;;
65545;SDS011;52177;55.968;37.498;2024-02-23T01:32:59;28.25;;;22.13;;
65545;SDS011;52177;55.968;37.498;2024-02-23T01:33:30;28.63;;;22.25;;
65545;SDS011;52177;55.968;37.498;2024-02-23T01:34:01;33.70;;;22.60;;
65545;SDS011;52177;55.968;37.498;2024-02-23T01:34:31;29.75;;;22.08;;
65545;SDS011;52177;55.968;37.498;2024-02-23T01:35:02;30.40;;;22.35;;
65545;SDS011;52177;55.968;37.498;2024-02-23T01:35:35;30.25;;;22.77;;
65545;SDS011;52177;55.968;37.498;2024-02-23T01:36:06;29.27;;;22.15;;
65545;SDS011;52177;55.968;37.498;2024-02-23T01:36:37;30.02;;;22.30;;
65545;SDS011;52177;55.968;37.498;2024-02-23T01:37:09;29.80;;;22.30;;
65545;SDS011;52177;55.968;37.498;2024-02-23T01:37:45;31.48;;;22.90;;
65545;SDS011;52177;55.968;37.498;2024-02-23T01:38:22;29.48;;;22.48;;
65545;SDS011;52177;55.968;37.498;2024-02-23T01:39:01;28.65;;;21.30;;
65545;SDS011;52177;55.968;37.498;2024-02-23T01:39:34;28.63;;;21.40;;
65545;SDS011;52177;55.968;37.498;2024-02-23T01:40:04;27.50;;;22.20;;
65545;SDS011;52177;55.968;37.498;2024-02-23T01:40:36;30.67;;;21.98;;
65545;SDS011;52177;55.968;37.498;2024-02-23T01:41:06;29.67;;;21.67;;
65545;SDS011;52177;55.968;37.498;2024-02-23T01:41:47;30.25;;;21.70;;
65545;SDS011;52177;55.968;37.498;2024-02-23T01:42:18;28.23;;;21.58;;
65545;SDS011;52177;55.968;37.498;2024-02-23T01:42:48;31.58;;;22.45;;
65545;SDS011;52177;55.968;37.498;2024-02-23T01:43:18;28.70;;;20.70;;
65545;SDS011;52177;55.968;37.498;2024-02-23T01:43:49;27.92;;;21.50;;
65545;SDS011;52177;55.968;37.498;2024-02-23T01:44:19;30.20;;;22.85;;
65545;SDS011;52177;55.968;37.498;2024-02-23T01:44:52;31.35;;;21.85;;
65545;SDS011;52177;55.968;37.498;2024-02-23T01:46:06;26.90;;;20.05;;
65545;SDS011;52177;55.968;37.498;2024-02-23T01:46:36;30.15;;;21.35;;
65545;SDS011;52177;55.968;37.498;2024-02-23T01:47:19;30.60;;;21.25;;
65545;SDS011;52177;55.968;37.498;2024-02-23T01:47:49;27.20;;;20.40;;
65545;SDS011;52177;55.968;37.498;2024-02-23T01:48:20;28.70;;;20.73;;
65545;SDS011;52177;55.968;37.498;2024-02-23T01:48:54;27.02;;;20.85;;
65545;SDS011;52177;55.968;37.498;2024-02-23T01:49:27;30.00;;;21.60;;
65545;SDS011;52177;55.968;37.498;2024-02-23T01:50:01;27.88;;;20.80;;
65545;SDS011;52177;55.968;37.498;2024-02-23T01:50:33;31.58;;;21.70;;
65545;SDS011;52177;55.968;37.498;2024-02-23T01:51:04;27.58;;;21.27;;
65545;SDS011;52177;55.968;37.498;2024-02-23T01:51:35;28.25;;;21.38;;
65545;SDS011;52177;55.968;37.498;2024-02-23T01:52:08;31.75;;;22.25;;
65545;SDS011;52177;55.968;37.498;2024-02-23T01:52:42;32.38;;;22.48;;
65545;SDS011;52177;55.968;37.498;2024-02-23T01:53:18;30.05;;;20.80;;
65545;SDS011;52177;55.968;37.498;2024-02-23T01:53:52;25.65;;;20.52;;
65545;SDS011;52177;55.968;37.498;2024-02-23T01:54:22;26.00;;;20.85;;
65545;SDS011;52177;55.968;37.498;2024-02-23T01:54:56;27.00;;;21.13;;
65545;SDS011;52177;55.968;37.498;2024-02-23T01:55:26;28.92;;;21.02;;
65545;SDS011;52177;55.968;37.498;2024-02-23T01:56:04;29.83;;;21.23;;
65545;SDS011;52177;55.968;37.498;2024-02-23T01:56:37;31.50;;;21.05;;
65545;SDS011;52177;55.968;37.498;2024-02-23T01:57:09;29.27;;;21.63;;
65545;SDS011;52177;55.968;37.498;2024-02-23T01:57:40;32.03;;;21.75;;
65545;SDS011;52177;55.968;37.498;2024-02-23T01:58:17;29.92;;;21.50;;
65545;SDS011;52177;55.968;37.498;2024-02-23T01:58:48;28.02;;;21.40;;
65545;SDS011;52177;55.968;37.498;2024-02-23T01:59:19;30.77;;;21.75;;
65545;SDS011;52177;55.968;37.498;2024-02-23T01:59:53;27.63;;;20.58;;
65545;SDS011;52177;55.968;37.498;2024-02-23T02:00:23;29.95;;;20.90;;
65545;SDS011;52177;55.968;37.498;2024-02-23T02:00:54;30.02;;;21.85;;
65545;SDS011;52177;55.968;37.498;2024-02-23T02:01:24;32.00;;;22.08;;
65545;SDS011;52177;55.968;37.498;2024-02-23T02:01:56;27.50;;;21.17;;
65545;SDS011;52177;55.968;37.498;2024-02-23T02:02:35;29.77;;;20.77;;
65545;SDS011;52177;55.968;37.498;2024-02-23T02:03:06;28.60;;;20.70;;
65545;SDS011;52177;55.968;37.498;2024-02-23T02:03:40;29.73;;;22.02;;
65545;SDS011;52177;55.968;37.498;2024-02-23T02:04:11;26.92;;;20.33;;
65545;SDS011;52177;55.968;37.498;2024-02-23T02:04:41;29.17;;;21.73;;
65545;SDS011;52177;55.968;37.498;2024-02-23T02:05:11;30.48;;;20.95;;
65545;SDS011;52177;55.968;37.498;2024-02-23T02:05:45;26.92;;;20.33;;
65545;SDS011;52177;55.968;37.498;2024-02-23T02:06:15;28.80;;;22.48;;
65545;SDS011;52177;55.968;37.498;2024-02-23T02:06:46;26.83;;;21.73;;
65545;SDS011;52177;55.968;37.498;2024-02-23T02:07:17;27.77;;;21.10;;
65545;SDS011;52177;55.968;37.498;2024-02-23T02:08:10;29.40;;;21.23;;
65545;SDS011;52177;55.968;37.498;2024-02-23T02:08:44;26.63;;;19.88;;
65545;SDS011;52177;55.968;37.498;2024-02-23T02:09:21;30.58;;;20.25;;
65545;SDS011;52177;55.968;37.498;2024-02-23T02:09:51;27.42;;;20.60;;
65545;SDS011;52177;55.968;37.498;2024-02-23T02:10:22;30.35;;;21.15;;
65545;SDS011;52177;55.968;37.498;2024-02-23T02:10:52;27.80;;;21.02;;
65545;SDS011;52177;55.968;37.498;2024-02-23T02:11:23;27.30;;;20.65;;
65545;SDS011;52177;55.968;37.498;2024-02-23T02:11:53;26.33;;;20.58;;
65545;SDS011;52177;55.968;37.498;2024-02-23T02:12:26;28.33;;;21.45;;
65545;SDS011;52177;55.968;37.498;2024-02-23T02:13:04;29.95;;;21.33;;
65545;SDS011;52177;55.968;37.498;2024-02-23T02:13:35;30.38;;;20.80;;
65545;SDS011;52177;55.968;37.498;2024-02-23T02:14:08;28.25;;;21.00;;
65545;SDS011;52177;55.968;37.498;2024-02-23T02:14:43;27.88;;;19.63;;
65545;SDS011;52177;55.968;37.498;2024-02-23T02:15:14;24.23;;;19.35;;
65545;SDS011;52177;55.968;37.498;2024-02-23T02:15:49;28.02;;;21.02;;
65545;SDS011;52177;55.968;37.498;2024-02-23T02:16:20;27.50;;;20.83;;
65545;SDS011;52177;55.968;37.498;2024-02-23T02:17:00;29.88;;;22.20;;
65545;SDS011;52177;55.968;37.498;2024-02-23T02:17:31;25.08;;;20.50;;
65545;SDS011;52177;55.968;37.498;2024-02-23T02:18:01;25.77;;;20.05;;
65545;SDS011;52177;55.968;37.498;2024-02-23T02:18:32;26.48;;;21.05;;
65545;SDS011;52177;55.968;37.498;2024-02-23T02:19:02;31.15;;;20.92;;
65545;SDS011;52177;55.968;37.498;2024-02-23T02:19:33;30.95;;;21.73;;
65545;SDS011;52177;55.968;37.498;2024-02-23T02:20:06;28.25;;;21.30;;
65545;SDS011;52177;55.968;37.498;2024-02-23T02:20:49;30.60;;;21.48;;
65545;SDS011;52177;55.968;37.498;2024-02-23T02:21:27;29.27;;;20.83;;
65545;SDS011;52177;55.968;37.498;2024-02-23T02:21:58;30.60;;;21.30;;
65545;SDS011;52177;55.968;37.498;2024-02-23T02:22:28;30.27;;;21.50;;
65545;SDS011;52177;55.968;37.498;2024-02-23T02:22:59;28.13;;;21.52;;
65545;SDS011;52177;55.968;37.498;2024-02-23T02:23:32;26.77;;;20.67;;
65545;SDS011;52177;55.968;37.498;2024-02-23T02:24:07;27.25;;;20.17;;
65545;SDS011;52177;55.968;37.498;2024-02-23T02:24:38;29.00;;;21.65;;
65545;SDS011;52177;55.968;37.498;2024-02-23T02:25:13;29.67;;;22.15;;
65545;SDS011;52177;55.968;37.498;2024-02-23T02:25:56;28.90;;;21.20;;
65545;SDS011;52177;55.968;37.498;2024-02-23T02:26:34;29.48;;;21.27;;
65545;SDS011;52177;55.968;37.498;2024-02-23T02:27:06;32.05;;;20.95;;
65545;SDS011;52177;55.968;37.498;2024-02-23T02:27:40;29.75;;;22.08;;
65545;SDS011;52177;55.968;37.498;2024-02-23T02:28:11;29.77;;;21.35;;
65545;SDS011;52177;55.968;37.498;2024-02-23T02:28:44;28.90;;;21.50;;
65545;SDS011;52177;55.968;37.498;2024-02-23T02:29:17;29.35;;;21.88;;
65545;SDS011;52177;55.968;37.498;2024-02-23T02:29:49;27.90;;;21.15;;
65545;SDS011;52177;55.968;37.498;2024-02-23T02:30:23;30.33;;;22.10;;
65545;SDS011;52177;55.968;37.498;2024-02-23T02:30:56;30.27;;;20.80;;
65545;SDS011;52177;55.968;37.498;2024-02-23T02:31:27;28.17;;;21.95;;
65545;SDS011;52177;55.968;37.498;2024-02-23T02:32:07;25.35;;;19.75;;
65545;SDS011;52177;55.968;37.498;2024-02-23T02:32:37;28.35;;;21.25;;
65545;SDS011;52177;55.968;37.498;2024-02-23T02:33:10;29.52;;;22.27;;
65545;SDS011;52177;55.968;37.498;2024-02-23T02:33:41;28.33;;;21.08;;
65545;SDS011;52177;55.968;37.498;2024-02-23T02:34:16;28.90;;;20.98;;
65545;SDS011;52177;55.968;37.498;2024-02-23T02:34:47;29.90;;;21.45;;
65545;SDS011;52177;55.968;37.498;2024-02-23T02:35:20;29.02;;;21.63;;
65545;SDS011;52177;55.968;37.498;2024-02-23T02:35:50;33.38;;;21.88;;
65545;SDS011;52177;55.968;37.498;2024-02-23T02:36:23;29.58;;;22.63;;
65545;SDS011;52177;55.968;37.498;2024-02-23T02:36:53;29.55;;;21.35;;
65545;SDS011;52177;55.968;37.498;2024-02-23T02:37:24;28.98;;;21.23;;
65545;SDS011;52177;55.968;37.498;2024-02-23T02:37:57;30.98;;;21.65;;
65545;SDS011;52177;55.968;37.498;2024-02-23T02:38:28;31.48;;;21.58;;
65545;SDS011;52177;55.968;37.498;2024-02-23T02:38:58;30.30;;;22.55;;
65545;SDS011;52177;55.968;37.498;2024-02-23T02:39:28;29.25;;;22.00;;
65545;SDS011;52177;55.968;37.498;2024-02-23T02:39:59;29.77;;;21.40;;
65545;SDS011;52177;55.968;37.498;2024-02-23T02:40:29;29.98;;;21.75;;
65545;SDS011;52177;55.968;37.498;2024-02-23T02:41:01;31.95;;;23.20;;
65545;SDS011;52177;55.968;37.498;2024-02-23T02:41:32;31.65;;;21.75;;
65545;SDS011;52177;55.968;37.498;2024-02-23T02:42:02;29.67;;;21.60;;
65545;SDS011;52177;55.968;37.498;2024-02-23T02:42:33;29.80;;;22.90;;
65545;SDS011;52177;55.968;37.498;2024-02-23T02:43:04;28.42;;;21.95;;
65545;SDS011;52177;55.968;37.498;2024-02-23T02:43:37;27.50;;;20.85;;
65545;SDS011;52177;55.968;37.498;2024-02-23T02:44:10;28.08;;;21.73;;
65545;SDS011;52177;55.968;37.498;2024-02-23T02:44:50;31.80;;;22.30;;
65545;SDS011;52177;55.968;37.498;2024-02-23T02:45:29;31.08;;;21.55;;
65545;SDS011;52177;55.968;37.498;2024-02-23T02:46:00;29.42;;;21.45;;
65545;SDS011;52177;55.968;37.498;2024-02-23T02:46:30;31.05;;;21.77;;
65545;SDS011;52177;55.968;37.498;2024-02-23T02:47:03;30.63;;;20.98;;
65545;SDS011;52177;55.968;37.498;2024-02-23T02:47:37;30.95;;;22.20;;
65545;SDS011;52177;55.968;37.498;2024-02-23T02:48:10;29.65;;;22.35;;
65545;SDS011;52177;55.968;37.498;2024-02-23T02:48:52;30.88;;;20.83;;
65545;SDS011;52177;55.968;37.498;2024-02-23T02:49:31;28.90;;;21.35;;
65545;SDS011;52177;55.968;37.498;2024-02-23T02:50:12;28.92;;;21.00;;
65545;SDS011;52177;55.968;37.498;2024-02-23T02:50:43;32.13;;;20.73;;
65545;SDS011;52177;55.968;37.498;2024-02-23T02:51:22;29.25;;;21.13;;
65545;SDS011;52177;55.968;37.498;2024-02-23T02:51:53;28.73;;;21.85;;
65545;SDS011;52177;55.968;37.498;2024-02-23T02:52:23;31.20;;;22.42;;
65545;SDS011;52177;55.968;37.498;2024-02-23T02:52:56;35.78;;;24.45;;
65545;SDS011;52177;55.968;37.498;2024-02-23T02:53:27;30.50;;;22.27;;
65545;SDS011;52177;55.968;37.498;2024-02-23T02:54:03;29.27;;;22.13;;
65545;SDS011;52177;55.968;37.498;2024-02-23T02:54:34;32.85;;;22.65;;
65545;SDS011;52177;55.968;37.498;2024-02-23T02:55:04;28.73;;;21.50;;
65545;SDS011;52177;55.968;37.498;2024-02-23T02:55:35;30.08;;;21.42;;
65545;SDS011;52177;55.968;37.498;2024-02-23T02:56:06;31.38;;;21.77;;
65545;SDS011;52177;55.968;37.498;2024-02-23T02:56:43;30.08;;;21.80;;
65545;SDS011;52177;55.968;37.498;2024-02-23T02:57:14;30.67;;;20.58;;
65545;SDS011;52177;55.968;37.498;2024-02-23T02:57:44;30.20;;;22.55;;
65545;SDS011;52177;55.968;37.498;2024-02-23T02:58:15;31.90;;;21.90;;
65545;SDS011;52177;55.968;37.498;2024-02-23T02:58:51;34.58;;;21.63;;
65545;SDS011;52177;55.968;37.498;2024-02-23T02:59:22;31.95;;;21.60;;
65545;SDS011;52177;55.968;37.498;2024-02-23T02:59:56;28.50;;;20.95;;
65545;SDS011;52177;55.968;37.498;2024-02-23T03:00:33;31.20;;;21.55;;
65545;SDS011;52177;55.968;37.498;2024-02-23T03:01:06;29.60;;;21.05;;
65545;SDS011;52177;55.968;37.498;2024-02-23T03:01:36;30.90;;;22.58;;
65545;SDS011;52177;55.968;37.498;2024-02-23T03:02:07;29.40;;;21.20;;
65545;SDS011;52177;55.968;37.498;2024-02-23T03:02:37;32.88;;;23.27;;
65545;SDS011;52177;55.968;37.498;2024-02-23T03:03:09;31.10;;;22.40;;
65545;SDS011;52177;55.968;37.498;2024-02-23T03:03:39;29.77;;;21.52;;
65545;SDS011;52177;55.968;37.498;2024-02-23T03:04:10;32.88;;;22.83;;
65545;SDS011;52177;55.968;37.498;2024-02-23T03:04:46;31.42;;;22.55;;
65545;SDS011;52177;55.968;37.498;2024-02-23T03:05:22;29.13;;;20.60;;
65545;SDS011;52177;55.968;37.498;2024-02-23T03:05:52;29.08;;;21.25;;
65545;SDS011;52177;55.968;37.498;2024-02-23T03:06:26;33.10;;;22.38;;
65545;SDS011;52177;55.968;37.498;2024-02-23T03:06:56;31.42;;;21.40;;
65545;SDS011;52177;55.968;37.498;2024-02-23T03:07:26;31.45;;;21.13;;
65545;SDS011;52177;55.968;37.498;2024-02-23T03:08:00;33.15;;;22.75;;
65545;SDS011;52177;55.968;37.498;2024-02-23T03:08:30;30.05;;;21.85;;
65545;SDS011;52177;55.968;37.498;2024-02-23T03:09:01;29.83;;;21.23;;
65545;SDS011;52177;55.968;37.498;2024-02-23T03:09:38;31.92;;;22.55;;
65545;SDS011;52177;55.968;37.498;2024-02-23T03:10:08;28.60;;;20.73;;
65545;SDS011;52177;55.968;37.498;2024-02-23T03:10:38;31.88;;;21.92;;